Time;durP1;ratioP1;P1;durP2;ratioP2;P2;SDS_P1;SDS_P2;PMS_P1;PMS_P2;Temp;Humidity;BMP_temperature;BMP_pressure;BME280_temperature;BME280_humidity;BME280_pressure;Samples;Min_cycle;Max_cycle;Signal;HPM_P1;HPM_P2
2023/06/23 00:01:45;;;;;;;0.80;0.80;;;;;18.00;96104.00;;;;5035311;28;20220;-54
2023/06/23 00:04:13;;;;;;;0.60;0.60;;;;;18.10;96102.00;;;;5035368;28;20193;-54
2023/06/23 00:06:41;;;;;;;0.50;0.50;;;;;18.00;96091.00;;;;5035297;28;20224;-55
2023/06/23 00:09:13;;;;;;;0.60;0.60;;;;;18.00;96094.00;;;;5035361;28;20196;-54
2023/06/23 00:11:41;;;;;;;0.90;0.90;;;;;18.00;96101.00;;;;5035307;28;20189;-55
2023/06/23 00:14:09;;;;;;;0.67;0.67;;;;;18.00;96107.00;;;;5035253;28;20197;-54
2023/06/23 00:16:36;;;;;;;0.50;0.50;;;;;18.10;96117.00;;;;5035578;28;20303;-54
2023/06/23 00:19:04;;;;;;;0.80;0.80;;;;;18.10;96120.00;;;;5035110;28;20283;-54
2023/06/23 00:21:31;;;;;;;0.70;0.70;;;;;18.10;96122.00;;;;5035092;28;20221;-55
2023/06/23 00:24:00;;;;;;;0.83;0.83;;;;;18.20;96127.00;;;;5035060;28;20208;-54
2023/06/23 00:26:28;;;;;;;1.60;1.03;;;;;18.10;96135.00;;;;5035202;28;20595;-54
2023/06/23 00:28:55;;;;;;;0.60;0.60;;;;;18.10;96143.00;;;;5034995;28;20203;-54
2023/06/23 00:31:22;;;;;;;0.40;0.40;;;;;18.20;96136.00;;;;5034969;28;20192;-55
2023/06/23 00:33:50;;;;;;;0.50;0.50;;;;;18.20;96143.00;;;;5034859;28;20200;-54
2023/06/23 00:36:17;;;;;;;0.73;0.73;;;;;18.10;96148.00;;;;5034657;28;20199;-55
2023/06/23 00:38:45;;;;;;;0.60;0.60;;;;;18.00;96153.00;;;;5034789;28;20193;-54
2023/06/23 00:41:14;;;;;;;0.47;0.47;;;;;17.70;96155.00;;;;5034684;28;20684;-54
2023/06/23 00:43:48;;;;;;;1.53;0.77;;;;;17.70;96154.00;;;;5034844;28;20231;-54
2023/06/23 00:46:18;;;;;;;0.70;0.70;;;;;17.60;96169.00;;;;5035416;28;20189;-55
2023/06/23 00:48:45;;;;;;;0.47;0.47;;;;;17.60;96178.00;;;;5034579;28;20210;-54
2023/06/23 00:51:15;;;;;;;0.50;0.50;;;;;17.60;96170.00;;;;5034495;28;20189;-54
2023/06/23 00:53:47;;;;;;;0.73;0.73;;;;;17.50;96180.00;;;;5034502;28;20189;-54
2023/06/23 00:56:16;;;;;;;0.40;0.40;;;;;17.50;96176.00;;;;5034861;28;20192;-54
2023/06/23 00:58:44;;;;;;;0.40;0.40;;;;;17.40;96186.00;;;;5034888;28;20679;-54
2023/06/23 01:01:12;;;;;;;0.47;0.47;;;;;17.30;96189.00;;;;5016558;28;20695;-54
2023/06/23 01:03:40;;;;;;;0.87;0.87;;;;;17.30;96198.00;;;;5034277;28;20247;-54
2023/06/23 01:06:14;;;;;;;0.87;0.87;;;;;17.20;96198.00;;;;5034250;28;20664;-55
2023/06/23 01:08:47;;;;;;;0.40;0.40;;;;;17.10;96202.00;;;;5034506;28;20192;-54
2023/06/23 01:11:21;;;;;;;1.20;1.17;;;;;17.00;96208.00;;;;5034666;28;20188;-54
2023/06/23 01:13:56;;;;;;;0.60;0.60;;;;;17.10;96210.00;;;;5034675;28;20227;-54
2023/06/23 01:16:29;;;;;;;1.13;1.13;;;;;16.90;96212.00;;;;5033989;28;20185;-54
2023/06/23 01:19:09;;;;;;;0.57;0.57;;;;;16.90;96213.00;;;;5034573;28;20255;-55
2023/06/23 01:21:50;;;;;;;0.60;0.60;;;;;16.90;96208.00;;;;5034183;28;20204;-55
2023/06/23 01:24:37;;;;;;;0.90;0.90;;;;;16.90;96222.00;;;;5034025;28;20184;-56
2023/06/23 01:27:44;;;;;;;0.77;0.77;;;;;17.00;96221.00;;;;5033873;28;20216;-57
2023/06/23 01:30:17;;;;;;;0.67;0.67;;;;;17.10;96222.00;;;;5034138;28;20580;-54
2023/06/23 01:32:50;;;;;;;0.40;0.40;;;;;17.00;96218.00;;;;5034054;28;20238;-54
2023/06/23 01:35:24;;;;;;;1.20;1.20;;;;;17.00;96221.00;;;;5033950;28;20552;-54
2023/06/23 01:37:58;;;;;;;0.50;0.50;;;;;17.00;96219.00;;;;5033790;28;20212;-63
2023/06/23 01:40:27;;;;;;;0.70;0.70;;;;;16.90;96218.00;;;;5033601;28;20270;-55
2023/06/23 01:42:57;;;;;;;0.60;0.60;;;;;16.80;96206.00;;;;5033731;28;20201;-55
2023/06/23 01:45:28;;;;;;;0.60;0.60;;;;;16.80;96210.00;;;;5033528;28;20201;-54
2023/06/23 01:48:00;;;;;;;0.60;0.60;;;;;16.70;96214.00;;;;5032885;28;20714;-54
2023/06/23 01:50:28;;;;;;;0.50;0.50;;;;;16.60;96215.00;;;;5015659;28;20644;-54
2023/06/23 01:52:56;;;;;;;0.60;0.60;;;;;16.70;96221.00;;;;5033451;28;20201;-54
2023/06/23 01:55:25;;;;;;;0.47;0.47;;;;;16.50;96229.00;;;;5033370;28;20257;-54
2023/06/23 01:57:54;;;;;;;0.87;0.87;;;;;16.30;96223.00;;;;5033164;28;20216;-54
2023/06/23 02:00:22;;;;;;;0.67;0.67;;;;;16.40;96223.00;;;;5033231;28;20255;-54
2023/06/23 02:02:53;;;;;;;0.63;0.63;;;;;16.60;96235.00;;;;5033258;28;20193;-56
2023/06/23 02:05:23;;;;;;;0.50;0.50;;;;;16.60;96237.00;;;;5033506;28;20216;-55
2023/06/23 02:07:53;;;;;;;0.40;0.40;;;;;16.60;96235.00;;;;5033109;28;20212;-54
2023/06/23 02:10:24;;;;;;;0.60;0.60;;;;;16.60;96231.00;;;;5033385;28;20188;-54
2023/06/23 02:12:52;;;;;;;0.50;0.50;;;;;16.60;96235.00;;;;5015437;28;20181;-55
2023/06/23 02:15:22;;;;;;;0.50;0.50;;;;;16.40;96246.00;;;;5033080;28;20189;-54
2023/06/23 02:17:53;;;;;;;0.73;0.73;;;;;16.50;96245.00;;;;5032993;28;20220;-54
2023/06/23 02:20:23;;;;;;;0.50;0.50;;;;;16.40;96255.00;;;;5033003;28;20180;-54
2023/06/23 02:22:53;;;;;;;0.40;0.40;;;;;16.30;96245.00;;;;5032985;28;20555;-54
2023/06/23 02:25:21;;;;;;;0.73;0.73;;;;;16.30;96251.00;;;;5032947;28;20192;-55
2023/06/23 02:27:49;;;;;;;0.60;0.60;;;;;16.20;96249.00;;;;5033082;28;20216;-54
2023/06/23 02:30:18;;;;;;;0.50;0.50;;;;;16.30;96253.00;;;;5032867;28;20188;-54
2023/06/23 02:32:47;;;;;;;0.70;0.70;;;;;16.30;96253.00;;;;5032860;28;20197;-54
2023/06/23 02:35:17;;;;;;;0.93;0.73;;;;;16.40;96269.00;;;;5033140;28;20201;-54
2023/06/23 02:37:50;;;;;;;0.53;0.53;;;;;16.40;96254.00;;;;5033331;28;20228;-54
2023/06/23 02:40:20;;;;;;;0.90;0.90;;;;;16.30;96256.00;;;;5032928;28;20265;-54
2023/06/23 02:42:54;;;;;;;1.00;1.00;;;;;16.40;96261.00;;;;5032772;28;20197;-54
2023/06/23 02:45:29;;;;;;;0.60;0.60;;;;;16.50;96266.00;;;;5033100;28;20195;-54
2023/06/23 02:47:57;;;;;;;0.93;0.93;;;;;16.20;96256.00;;;;5033115;28;20387;-54
2023/06/23 02:50:31;;;;;;;1.97;1.20;;;;;16.20;96253.00;;;;5032745;28;20192;-54
2023/06/23 02:53:04;;;;;;;0.73;0.73;;;;;16.30;96251.00;;;;5032742;28;20706;-54
2023/06/23 02:55:35;;;;;;;1.23;1.23;;;;;16.30;96255.00;;;;5033079;28;20209;-54
2023/06/23 02:58:06;;;;;;;2.57;1.03;;;;;16.40;96254.00;;;;5032877;28;20217;-54
2023/06/23 03:00:37;;;;;;;0.83;0.83;;;;;16.30;96248.00;;;;5035269;28;20548;-54
2023/06/23 03:03:08;;;;;;;0.70;0.70;;;;;16.40;96256.00;;;;5019362;28;20660;-54
2023/06/23 03:05:36;;;;;;;1.57;1.40;;;;;16.50;96252.00;;;;5036580;28;20239;-59
2023/06/23 03:08:05;;;;;;;1.53;1.27;;;;;16.50;96257.00;;;;5036411;28;20216;-55
2023/06/23 03:10:33;;;;;;;1.23;1.23;;;;;16.40;96263.00;;;;5036979;28;20193;-55
2023/06/23 03:13:00;;;;;;;1.33;1.33;;;;;16.50;96273.00;;;;5036365;28;20298;-54
2023/06/23 03:15:28;;;;;;;1.10;1.10;;;;;16.60;96269.00;;;;5036413;28;20298;-55
2023/06/23 03:18:04;;;;;;;0.90;0.90;;;;;16.70;96276.00;;;;5036273;28;20213;-54
2023/06/23 03:20:36;;;;;;;1.20;1.20;;;;;16.70;96282.00;;;;5036317;28;20192;-54
2023/06/23 03:23:09;;;;;;;0.90;0.90;;;;;16.50;96280.00;;;;5036722;28;20181;-54
2023/06/23 03:25:39;;;;;;;1.10;1.10;;;;;16.60;96288.00;;;;5036431;28;20191;-54
2023/06/23 03:28:10;;;;;;;0.87;0.87;;;;;16.60;96293.00;;;;5036016;28;20232;-55
2023/06/23 03:30:43;;;;;;;2.53;1.80;;;;;16.70;96303.00;;;;5036849;28;20189;-54
2023/06/23 03:33:15;;;;;;;0.90;0.90;;;;;16.70;96305.00;;;;5036022;28;20185;-54
2023/06/23 03:35:44;;;;;;;5.00;2.10;;;;;16.70;96309.00;;;;5036348;28;20209;-54
2023/06/23 03:38:17;;;;;;;1.33;1.33;;;;;16.50;96306.00;;;;5035850;28;20634;-54
2023/06/23 03:40:48;;;;;;;1.10;1.10;;;;;16.50;96310.00;;;;5036459;28;20180;-54
2023/06/23 03:43:21;;;;;;;1.20;1.20;;;;;16.40;96308.00;;;;5036156;28;20543;-54
2023/06/23 03:45:55;;;;;;;1.17;1.17;;;;;16.60;96306.00;;;;5035979;28;20188;-54
2023/06/23 03:48:25;;;;;;;1.73;1.63;;;;;16.70;96320.00;;;;5035871;28;20270;-59
2023/06/23 03:50:55;;;;;;;1.33;1.23;;;;;16.50;96323.00;;;;5035744;28;20188;-54
2023/06/23 03:53:25;;;;;;;1.40;1.30;;;;;16.50;96318.00;;;;5035743;28;20204;-54
2023/06/23 03:55:54;;;;;;;1.03;1.03;;;;;16.60;96317.00;;;;5036228;28;20177;-55
2023/06/23 03:58:24;;;;;;;2.03;1.93;;;;;16.50;96320.00;;;;5035502;28;20216;-54
2023/06/23 04:00:54;;;;;;;2.37;2.17;;;;;16.60;96320.00;;;;5035574;28;20561;-54
2023/06/23 04:03:24;;;;;;;1.00;1.00;;;;;16.60;96326.00;;;;5035456;28;20247;-54
2023/06/23 04:05:52;;;;;;;1.70;1.60;;;;;16.40;96338.00;;;;5035871;28;20192;-54
2023/06/23 04:08:21;;;;;;;2.83;2.57;;;;;16.60;96351.00;;;;5035201;28;20219;-54
2023/06/23 04:10:51;;;;;;;1.83;1.73;;;;;16.70;96345.00;;;;5034967;28;20552;-55
2023/06/23 04:13:20;;;;;;;1.83;1.73;;;;;16.70;96348.00;;;;5034968;28;20204;-54
2023/06/23 04:15:49;;;;;;;1.87;1.77;;;;;16.70;96356.00;;;;5035339;28;20200;-54
2023/06/23 04:18:19;;;;;;;2.77;1.90;;;;;16.80;96359.00;;;;5035112;28;20587;-55
2023/06/23 04:20:48;;;;;;;1.50;1.43;;;;;16.80;96362.00;;;;5035380;28;20196;-54
2023/06/23 04:23:18;;;;;;;1.90;1.77;;;;;16.80;96370.00;;;;5035088;28;20189;-54
2023/06/23 04:25:49;;;;;;;1.90;1.80;;;;;16.90;96371.00;;;;5035037;28;20195;-54
2023/06/23 04:28:21;;;;;;;1.60;1.57;;;;;16.90;96371.00;;;;5034893;28;20217;-54
2023/06/23 04:30:50;;;;;;;1.47;1.43;;;;;16.90;96386.00;;;;5034992;28;20321;-55
2023/06/23 04:33:18;;;;;;;2.03;1.93;;;;;17.10;96382.00;;;;5035167;28;20263;-54
2023/06/23 04:35:47;;;;;;;1.37;1.33;;;;;17.00;96394.00;;;;5035030;28;20219;-54
2023/06/23 04:38:17;;;;;;;2.27;2.17;;;;;16.90;96391.00;;;;5034808;28;20208;-54
2023/06/23 04:40:52;;;;;;;1.57;1.50;;;;;16.90;96406.00;;;;5035137;28;20263;-54
2023/06/23 04:43:26;;;;;;;2.67;2.47;;;;;16.70;96404.00;;;;5034666;28;20647;-55
2023/06/23 04:45:58;;;;;;;2.67;2.47;;;;;17.00;96399.00;;;;5035014;28;20181;-54
2023/06/23 04:48:30;;;;;;;2.70;2.47;;;;;17.00;96417.00;;;;5034569;28;20216;-55
2023/06/23 04:51:00;;;;;;;2.30;2.20;;;;;17.00;96418.00;;;;5034849;28;20192;-54
2023/06/23 04:53:41;;;;;;;1.90;1.80;;;;;17.00;96427.00;;;;5035149;28;20188;-54
2023/06/23 04:56:15;;;;;;;2.50;2.30;;;;;16.90;96428.00;;;;5017475;28;20205;-54
2023/06/23 04:58:46;;;;;;;2.20;2.10;;;;;16.90;96429.00;;;;5034750;28;20185;-58
2023/06/23 05:01:14;;;;;;;2.97;2.67;;;;;17.00;96431.00;;;;5034304;28;20185;-54
2023/06/23 05:03:42;;;;;;;3.53;3.23;;;;;16.90;96443.00;;;;5034648;28;20189;-54
2023/06/23 05:06:12;;;;;;;2.70;2.47;;;;;17.00;96437.00;;;;5034162;28;20200;-55
2023/06/23 05:08:40;;;;;;;3.00;2.80;;;;;16.90;96437.00;;;;5034034;28;20200;-54
2023/06/23 05:11:10;;;;;;;2.77;2.57;;;;;17.00;96450.00;;;;5016171;28;20205;-56
2023/06/23 05:13:39;;;;;;;3.90;3.60;;;;;16.90;96449.00;;;;5034196;28;20188;-54
2023/06/23 05:16:10;;;;;;;1.60;1.53;;;;;17.00;96459.00;;;;5034011;28;20193;-54
2023/06/23 05:18:39;;;;;;;2.33;2.20;;;;;17.00;96453.00;;;;5007207;28;20638;-55
2023/06/23 05:21:07;;;;;;;3.10;2.90;;;;;17.10;96456.00;;;;5016286;28;20193;-55
2023/06/23 05:23:39;;;;;;;3.23;2.83;;;;;17.10;96458.00;;;;5012879;28;20692;-55
2023/06/23 05:26:08;;;;;;;3.00;2.77;;;;;17.00;96451.00;;;;5016047;28;20711;-56
2023/06/23 05:28:38;;;;;;;3.73;2.57;;;;;17.30;96448.00;;;;5012326;28;20213;-58
2023/06/23 05:31:09;;;;;;;2.70;2.50;;;;;17.50;96446.00;;;;5011873;28;20189;-55
2023/06/23 05:33:38;;;;;;;1.77;1.67;;;;;17.60;96444.00;;;;5012636;28;20622;-55
2023/06/23 05:36:10;;;;;;;2.40;2.30;;;;;17.50;96449.00;;;;5012067;28;20209;-55
2023/06/23 05:38:40;;;;;;;1.60;1.50;;;;;17.70;96455.00;;;;5015484;28;20279;-54
2023/06/23 05:41:07;;;;;;;2.20;2.07;;;;;17.70;96453.00;;;;5011839;28;20755;-54
2023/06/23 05:43:34;;;;;;;2.60;2.40;;;;;17.60;96450.00;;;;5011662;28;20313;-54
2023/06/23 05:46:08;;;;;;;4.93;4.37;;;;;17.80;96459.00;;;;5011747;28;20208;-54
2023/06/23 05:48:41;;;;;;;4.50;4.10;;;;;17.50;96455.00;;;;5011204;28;20243;-54
2023/06/23 05:51:12;;;;;;;4.23;3.83;;;;;17.30;96473.00;;;;5023556;28;20195;-54
2023/06/23 05:53:42;;;;;;;5.57;3.70;;;;;17.30;96467.00;;;;5008141;28;20197;-54
2023/06/23 05:56:15;;;;;;;2.87;2.50;;;;;17.10;96480.00;;;;5011487;28;20193;-52
2023/06/23 05:58:47;;;;;;;4.17;3.77;;;;;17.00;96465.00;;;;5011806;28;20197;-55
2023/06/23 06:01:19;;;;;;;4.03;3.63;;;;;17.00;96467.00;;;;4994062;28;20208;-55
2023/06/23 06:03:52;;;;;;;8.00;2.80;;;;;17.20;96483.00;;;;5010712;28;20578;-54
2023/06/23 06:06:20;;;;;;;3.70;2.80;;;;;16.90;96473.00;;;;5010370;28;20199;-53
2023/06/23 06:08:49;;;;;;;1.80;1.70;;;;;16.90;96475.00;;;;5011176;28;20197;-52
2023/06/23 06:11:17;;;;;;;5.43;3.50;;;;;16.90;96485.00;;;;4993292;28;20288;-52
2023/06/23 06:13:47;;;;;;;2.63;2.43;;;;;17.10;96470.00;;;;5010813;28;20193;-54
2023/06/23 06:16:18;;;;;;;3.23;3.03;;;;;17.20;96476.00;;;;5010473;28;20547;-54
2023/06/23 06:18:49;;;;;;;4.30;3.63;;;;;17.20;96485.00;;;;4988047;28;20201;-54
2023/06/23 06:21:18;;;;;;;2.77;2.57;;;;;17.00;96487.00;;;;5020593;28;20193;-54
2023/06/23 06:23:47;;;;;;;4.17;3.57;;;;;17.20;96490.00;;;;5029746;28;20221;-54
2023/06/23 06:26:17;;;;;;;4.10;3.80;;;;;17.30;96491.00;;;;5029703;28;20201;-54
2023/06/23 06:28:46;;;;;;;3.73;3.43;;;;;17.20;96493.00;;;;5029578;28;20203;-54
2023/06/23 06:31:16;;;;;;;3.60;3.30;;;;;17.20;96488.00;;;;5029673;28;20196;-54
2023/06/23 06:33:45;;;;;;;4.23;3.77;;;;;17.40;96490.00;;;;5029242;28;20258;-54
2023/06/23 06:36:13;;;;;;;3.83;3.53;;;;;17.30;96490.00;;;;5029054;28;20227;-54
2023/06/23 06:38:42;;;;;;;3.93;3.20;;;;;17.50;96506.00;;;;5029503;28;20709;-54
2023/06/23 06:41:10;;;;;;;3.30;3.10;;;;;17.60;96506.00;;;;5029641;28;20219;-54
2023/06/23 06:43:38;;;;;;;3.00;2.27;;;;;17.60;96512.00;;;;5029906;28;20296;-54
2023/06/23 06:46:07;;;;;;;2.73;2.57;;;;;17.60;96521.00;;;;5029834;28;20196;-54
2023/06/23 06:48:37;;;;;;;3.27;3.03;;;;;17.30;96515.00;;;;5029006;28;20251;-54
2023/06/23 06:51:06;;;;;;;3.03;2.83;;;;;17.30;96518.00;;;;5030620;28;20200;-53
2023/06/23 06:53:33;;;;;;;3.00;2.80;;;;;17.50;96514.00;;;;5030257;28;20205;-53
2023/06/23 06:56:01;;;;;;;3.07;2.80;;;;;17.50;96533.00;;;;5030898;28;20208;-53
2023/06/23 06:58:29;;;;;;;3.30;2.97;;;;;17.40;96526.00;;;;5030181;28;20286;-53
2023/06/23 07:00:58;;;;;;;2.73;2.37;;;;;17.50;96532.00;;;;5030690;28;20266;-53
2023/06/23 07:03:27;;;;;;;2.50;2.33;;;;;17.90;96536.00;;;;5030107;28;20219;-53
2023/06/23 07:05:55;;;;;;;2.60;2.20;;;;;17.70;96539.00;;;;5029629;28;20205;-53
2023/06/23 07:08:23;;;;;;;2.90;2.70;;;;;17.80;96555.00;;;;5029722;28;20213;-53
2023/06/23 07:10:51;;;;;;;2.17;2.07;;;;;17.80;96540.00;;;;5009542;28;20197;-53
2023/06/23 07:13:19;;;;;;;3.27;3.03;;;;;18.10;96553.00;;;;5010512;28;20320;-52
2023/06/23 07:15:46;;;;;;;1.97;1.87;;;;;18.10;96557.00;;;;5010908;28;20197;-53
2023/06/23 07:18:14;;;;;;;3.37;3.07;;;;;18.20;96544.00;;;;5010110;28;20222;-53
2023/06/23 07:20:41;;;;;;;3.13;2.23;;;;;18.30;96548.00;;;;5010843;28;20197;-53
2023/06/23 07:23:10;;;;;;;3.30;2.53;;;;;18.20;96559.00;;;;5010343;28;20217;-53
2023/06/23 07:25:38;;;;;;;3.63;1.97;;;;;18.20;96549.00;;;;5010777;28;20202;-54
2023/06/23 07:28:05;;;;;;;2.30;2.10;;;;;18.20;96560.00;;;;5010256;28;20217;-53
2023/06/23 07:30:33;;;;;;;3.90;1.67;;;;;18.30;96562.00;;;;5010208;28;20629;-53
2023/06/23 07:33:00;;;;;;;3.13;2.47;;;;;18.20;96560.00;;;;5010420;28;20206;-53
2023/06/23 07:35:28;;;;;;;4.10;1.83;;;;;18.00;96566.00;;;;5010464;28;20201;-53
2023/06/23 07:37:55;;;;;;;2.00;1.90;;;;;18.50;96562.00;;;;4992818;28;20233;-53
2023/06/23 07:40:24;;;;;;;2.37;2.17;;;;;18.80;96565.00;;;;5025116;28;20281;-53
2023/06/23 07:42:52;;;;;;;4.00;3.40;;;;;19.10;96568.00;;;;5010379;28;20213;-53
2023/06/23 07:45:20;;;;;;;3.67;3.10;;;;;18.50;96586.00;;;;5005851;28;20202;-55
2023/06/23 07:47:48;;;;;;;2.40;2.20;;;;;18.30;96584.00;;;;5012649;28;20793;-53
2023/06/23 07:50:15;;;;;;;3.27;2.70;;;;;18.50;96577.00;;;;5013967;28;20197;-53
2023/06/23 07:52:45;;;;;;;3.50;3.30;;;;;18.30;96586.00;;;;5013736;28;20279;-53
2023/06/23 07:55:19;;;;;;;2.57;2.40;;;;;18.40;96618.00;;;;5022918;28;20208;-53
2023/06/23 07:57:49;;;;;;;2.00;1.90;;;;;18.20;96587.00;;;;5028761;28;20281;-53
2023/06/23 08:00:17;;;;;;;2.80;2.60;;;;;18.30;96627.00;;;;5033665;28;20200;-53
2023/06/23 08:02:45;;;;;;;2.20;2.10;;;;;18.60;96598.00;;;;5032408;28;20216;-53
2023/06/23 08:05:13;;;;;;;2.90;2.60;;;;;18.90;96613.00;;;;5033614;28;20200;-53
2023/06/23 08:07:40;;;;;;;2.27;1.97;;;;;19.10;96601.00;;;;5033206;28;20691;-54
2023/06/23 08:10:08;;;;;;;1.97;1.87;;;;;19.20;96605.00;;;;5033173;28;20204;-53
2023/06/23 08:12:37;;;;;;;1.90;1.77;;;;;19.60;96607.00;;;;5015408;28;20207;-55
2023/06/23 08:15:07;;;;;;;1.40;1.40;;;;;19.30;96624.00;;;;5016548;28;20197;-56
2023/06/23 08:17:37;;;;;;;1.77;1.67;;;;;19.30;96627.00;;;;5013266;28;20546;-56
2023/06/23 08:20:05;;;;;;;2.83;1.93;;;;;19.20;96638.00;;;;4995715;28;20239;-54
2023/06/23 08:22:32;;;;;;;2.33;2.13;;;;;19.10;96639.00;;;;5015040;28;20228;-54
2023/06/23 08:25:00;;;;;;;2.07;1.97;;;;;18.70;96636.00;;;;5033492;28;20575;-54
2023/06/23 08:27:27;;;;;;;1.57;1.50;;;;;18.80;96642.00;;;;5032758;28;20231;-54
2023/06/23 08:29:55;;;;;;;2.20;2.10;;;;;18.70;96641.00;;;;5032906;28;20208;-54
2023/06/23 08:32:23;;;;;;;2.90;2.30;;;;;18.40;96629.00;;;;5032927;28;20270;-54
2023/06/23 08:34:51;;;;;;;1.20;1.20;;;;;18.20;96646.00;;;;5031084;28;20205;-54
2023/06/23 08:37:18;;;;;;;1.67;1.57;;;;;18.60;96635.00;;;;5032652;28;20223;-54
2023/06/23 08:39:46;;;;;;;3.90;2.53;;;;;18.80;96643.00;;;;5032842;28;20672;-54
2023/06/23 08:42:14;;;;;;;2.90;2.53;;;;;19.00;96643.00;;;;5032284;28;20220;-54
2023/06/23 08:44:44;;;;;;;6.63;2.30;;;;;19.10;96642.00;;;;5032963;28;20192;-54
2023/06/23 08:47:14;;;;;;;1.63;1.53;;;;;19.40;96637.00;;;;5014732;28;20240;-54
2023/06/23 08:49:45;;;;;;;1.77;1.57;;;;;19.50;96637.00;;;;5014756;28;20201;-54
2023/06/23 08:52:14;;;;;;;2.30;1.87;;;;;19.00;96644.00;;;;5032585;28;20211;-54
2023/06/23 08:54:41;;;;;;;2.03;1.93;;;;;19.20;96648.00;;;;5032463;28;20279;-54
2023/06/23 08:57:09;;;;;;;1.50;1.40;;;;;19.20;96647.00;;;;5031792;28;20220;-53
2023/06/23 08:59:37;;;;;;;2.70;1.53;;;;;19.40;96648.00;;;;5018362;28;20209;-54
2023/06/23 09:02:05;;;;;;;2.10;1.87;;;;;19.40;96650.00;;;;5012719;28;20715;-53
2023/06/23 09:04:33;;;;;;;2.07;1.93;;;;;19.50;96651.00;;;;5012574;28;20692;-54
2023/06/23 09:07:01;;;;;;;2.57;2.37;;;;;19.80;96667.00;;;;5011254;28;20217;-54
2023/06/23 09:09:29;;;;;;;2.17;2.03;;;;;19.90;96679.00;;;;5012706;28;20556;-54
2023/06/23 09:11:57;;;;;;;2.70;1.47;;;;;19.50;96678.00;;;;5012023;28;20268;-54
2023/06/23 09:14:29;;;;;;;1.87;1.70;;;;;20.00;96678.00;;;;5012879;28;20211;-54
2023/06/23 09:16:58;;;;;;;2.13;1.73;;;;;20.00;96669.00;;;;5010856;28;20303;-53
2023/06/23 09:19:26;;;;;;;1.33;1.33;;;;;19.90;96675.00;;;;5011977;28;20202;-54
2023/06/23 09:21:53;;;;;;;1.60;1.53;;;;;20.20;96679.00;;;;5011477;28;20558;-54
2023/06/23 09:24:23;;;;;;;4.00;1.53;;;;;20.20;96676.00;;;;5011853;28;20222;-54
2023/06/23 09:26:52;;;;;;;1.57;1.47;;;;;20.10;96686.00;;;;5010806;28;20213;-54
2023/06/23 09:29:21;;;;;;;2.70;2.27;;;;;20.10;96684.00;;;;5012127;28;20197;-54
2023/06/23 09:31:49;;;;;;;1.27;1.27;;;;;20.10;96680.00;;;;5011640;28;20205;-54
2023/06/23 09:34:24;;;;;;;1.33;1.23;;;;;20.00;96688.00;;;;5011634;28;20197;-54
2023/06/23 09:36:53;;;;;;;1.57;1.47;;;;;20.10;96668.00;;;;5011485;28;20335;-54
2023/06/23 09:39:23;;;;;;;1.83;1.73;;;;;20.50;96691.00;;;;5012071;28;20197;-54
2023/06/23 09:41:56;;;;;;;2.07;1.97;;;;;20.10;96696.00;;;;5011872;28;20205;-54
2023/06/23 09:44:33;;;;;;;0.97;0.97;;;;;19.60;96715.00;;;;5011791;28;20296;-54
2023/06/23 09:47:01;;;;;;;1.37;1.30;;;;;19.50;96696.00;;;;5012123;28;20225;-54
2023/06/23 09:49:29;;;;;;;1.43;1.33;;;;;19.60;96711.00;;;;5012535;28;20639;-54
2023/06/23 09:51:56;;;;;;;1.57;1.47;;;;;19.70;96703.00;;;;5007309;28;20284;-54
2023/06/23 09:54:34;;;;;;;3.10;2.73;;;;;20.10;96688.00;;;;5011760;28;20193;-53
2023/06/23 09:57:07;;;;;;;2.93;2.67;;;;;20.40;96685.00;;;;5011507;28;20457;-54
2023/06/23 09:59:37;;;;;;;1.37;1.37;;;;;20.80;96689.00;;;;5011955;28;20200;-54
2023/06/23 10:02:06;;;;;;;1.73;1.63;;;;;20.70;96702.00;;;;5011602;28;20209;-54
2023/06/23 10:04:33;;;;;;;1.30;1.30;;;;;20.20;96713.00;;;;5011426;28;20240;-54
2023/06/23 10:07:19;;;;;;;1.03;1.03;;;;;20.00;96719.00;;;;4995159;28;20224;-53
2023/06/23 10:09:52;;;;;;;1.67;1.57;;;;;19.90;96707.00;;;;5017193;28;20196;-54
2023/06/23 10:12:22;;;;;;;2.27;2.17;;;;;20.20;96705.00;;;;5013387;28;20223;-57
2023/06/23 10:14:50;;;;;;;1.97;1.87;;;;;20.70;96702.00;;;;5030953;28;20690;-54
2023/06/23 10:17:18;;;;;;;1.57;1.47;;;;;20.80;96705.00;;;;5030776;28;20216;-54
2023/06/23 10:19:46;;;;;;;0.80;0.80;;;;;20.60;96700.00;;;;5030999;28;20199;-55
2023/06/23 10:22:17;;;;;;;1.30;1.20;;;;;21.30;96706.00;;;;5030412;28;20685;-54
2023/06/23 10:24:46;;;;;;;3.97;1.33;;;;;21.20;96713.00;;;;5013841;28;20309;-54
2023/06/23 10:27:19;;;;;;;1.47;1.30;;;;;21.30;96698.00;;;;5001603;28;20342;-55
2023/06/23 10:29:52;;;;;;;1.03;1.03;;;;;21.60;96703.00;;;;5014692;28;20553;-54
2023/06/23 10:32:23;;;;;;;1.88;1.77;;;;;21.20;96713.00;;;;5030634;28;20193;-54
2023/06/23 10:34:52;;;;;;;0.87;0.87;;;;;21.10;96693.00;;;;5030771;28;20216;-54
2023/06/23 10:37:22;;;;;;;1.33;1.23;;;;;20.90;96698.00;;;;5021043;28;20216;-54
2023/06/23 10:39:54;;;;;;;2.40;2.20;;;;;21.00;96688.00;;;;5007398;28;20193;-54
2023/06/23 10:42:24;;;;;;;2.10;1.93;;;;;20.90;96695.00;;;;5011082;28;20190;-54
2023/06/23 10:44:52;;;;;;;2.10;2.00;;;;;21.40;96687.00;;;;5022313;28;20220;-54
2023/06/23 10:47:21;;;;;;;1.40;1.37;;;;;21.10;96699.00;;;;5030124;28;20236;-54
2023/06/23 10:49:49;;;;;;;1.55;1.45;;;;;21.40;96677.00;;;;5020740;28;20193;-54
2023/06/23 10:52:17;;;;;;;1.53;1.43;;;;;21.60;96687.00;;;;5030646;28;20201;-54
2023/06/23 10:54:44;;;;;;;1.50;1.40;;;;;21.60;96684.00;;;;5030600;28;20200;-53
2023/06/23 10:57:13;;;;;;;2.67;1.48;;;;;21.60;96687.00;;;;5030574;28;20217;-54
2023/06/23 10:59:44;;;;;;;1.75;1.65;;;;;21.60;96684.00;;;;5030537;28;20193;-54
2023/06/23 11:02:18;;;;;;;0.85;0.85;;;;;22.10;96686.00;;;;5029577;28;20200;-54
2023/06/23 11:04:55;;;;;;;1.42;1.33;;;;;22.20;96689.00;;;;5030377;28;20208;-54
2023/06/23 11:07:22;;;;;;;1.55;1.45;;;;;22.10;96700.00;;;;5028468;28;20243;-54
2023/06/23 11:10:03;;;;;;;0.88;0.88;;;;;21.70;96673.00;;;;5030503;28;20193;-54
2023/06/23 11:12:32;;;;;;;1.20;1.20;;;;;21.40;96698.00;;;;5017748;28;20220;-54
2023/06/23 11:15:15;;;;;;;1.00;1.00;;;;;21.50;96686.00;;;;5030327;28;20197;-54
2023/06/23 11:17:44;;;;;;;1.92;1.83;;;;;21.60;96688.00;;;;5022159;28;20228;-54
2023/06/23 11:20:14;;;;;;;1.60;1.50;;;;;21.70;96671.00;;;;5010857;28;20675;-53
2023/06/23 11:22:53;;;;;;;1.43;1.33;;;;;22.00;96690.00;;;;5013732;28;20219;-54
2023/06/23 11:25:26;;;;;;;1.15;1.05;;;;;22.60;96686.00;;;;5014503;28;20220;-54
2023/06/23 11:28:26;;;;;;;1.48;1.38;;;;;22.50;96701.00;;;;5014429;28;20232;-54
2023/06/23 11:31:01;;;;;;;1.08;1.08;;;;;22.00;96690.00;;;;5014203;28;20197;-54
2023/06/23 11:33:30;;;;;;;0.98;0.98;;;;;22.40;96680.00;;;;5013542;28;20204;-54
2023/06/23 11:36:01;;;;;;;0.98;0.98;;;;;22.30;96696.00;;;;5014202;28;20201;-54
2023/06/23 11:38:29;;;;;;;0.73;0.73;;;;;22.50;96691.00;;;;5022388;28;20248;-54
2023/06/23 11:40:57;;;;;;;1.20;1.20;;;;;22.70;96686.00;;;;5034139;28;20207;-54
2023/06/23 11:43:24;;;;;;;0.85;0.85;;;;;22.40;96689.00;;;;5033368;28;20236;-54
2023/06/23 11:45:57;;;;;;;0.73;0.73;;;;;22.50;96688.00;;;;5034142;28;20204;-54
2023/06/23 11:48:28;;;;;;;1.02;1.02;;;;;22.40;96730.00;;;;5033262;28;20583;-54
2023/06/23 11:50:56;;;;;;;1.80;1.70;;;;;22.00;96693.00;;;;5034013;28;20276;-54
2023/06/23 11:53:23;;;;;;;1.10;1.10;;;;;22.10;96682.00;;;;5034183;28;20196;-54
2023/06/23 11:55:51;;;;;;;1.23;1.23;;;;;22.30;96670.00;;;;5035465;28;20196;-54
2023/06/23 11:58:18;;;;;;;1.13;1.08;;;;;22.70;96705.00;;;;5035478;28;20213;-54
2023/06/23 12:00:46;;;;;;;1.30;1.27;;;;;22.00;96721.00;;;;5035281;28;20185;-53
2023/06/23 12:03:16;;;;;;;3.85;1.98;;;;;21.70;96712.00;;;;5017651;28;20196;-54
2023/06/23 12:05:44;;;;;;;2.03;1.92;;;;;22.50;96701.00;;;;5035349;28;20263;-54
2023/06/23 12:08:13;;;;;;;1.40;1.33;;;;;22.90;96720.00;;;;5035580;28;20296;-54
2023/06/23 12:10:41;;;;;;;2.28;2.08;;;;;22.60;96718.00;;;;5035379;28;20192;-54
2023/06/23 12:13:09;;;;;;;1.10;1.10;;;;;22.40;96714.00;;;;5035994;28;20192;-54
2023/06/23 12:15:38;;;;;;;0.95;0.95;;;;;22.50;96698.00;;;;5035161;28;20189;-54
2023/06/23 12:18:05;;;;;;;1.05;1.05;;;;;22.60;96714.00;;;;5035118;28;20295;-54
2023/06/23 12:20:36;;;;;;;0.75;0.75;;;;;22.90;96710.00;;;;5035151;28;20200;-54
2023/06/23 12:23:04;;;;;;;0.82;0.82;;;;;23.10;96700.00;;;;5035068;28;20188;-54
2023/06/23 12:25:33;;;;;;;1.27;1.27;;;;;22.60;96696.00;;;;5035183;28;20244;-57
2023/06/23 12:28:03;;;;;;;2.03;1.80;;;;;22.50;96716.00;;;;5034915;28;20212;-54
2023/06/23 12:30:39;;;;;;;1.50;1.40;;;;;22.60;96697.00;;;;5035661;28;20282;-54
2023/06/23 12:33:12;;;;;;;7.95;1.15;;;;;23.10;96677.00;;;;5034011;28;20192;-54